Time;durP1;ratioP1;P1;durP2;ratioP2;P2;SDS_P1;SDS_P2;PMS_P1;PMS_P2;Temp;Humidity;BMP_temperature;BMP_pressure;BME280_temperature;BME280_humidity;BME280_pressure;Samples;Min_cycle;Max_cycle;Signal;HPM_P1;HPM_P2
2021/09/26 00:00:10;;;;;;;0.20;0.20;;;;;;;16.60;68.81;101368.19;680165;28;21613;-68
2021/09/26 00:00:35;;;;;;;0.30;0.30;;;;;;;16.59;68.93;101361.03;676665;28;159371;-67
2021/09/26 00:00:56;;;;;;;0.20;0.20;;;;;;;16.59;68.73;101366.50;681821;28;44366;-67
2021/09/26 00:01:17;;;;;;;0.20;0.20;;;;;;;16.58;68.81;101362.06;682890;28;22441;-67
2021/09/26 00:01:38;;;;;;;0.30;0.30;;;;;;;16.56;68.66;101370.44;683312;28;21574;-67
2021/09/26 00:02:00;;;;;;;0.20;0.20;;;;;;;16.54;68.54;101363.53;683607;28;22446;-67
2021/09/26 00:02:21;;;;;;;0.20;0.20;;;;;;;16.51;68.62;101364.78;682200;28;45102;-67
2021/09/26 00:02:42;;;;;;;0.30;0.30;;;;;;;16.52;68.60;101368.31;683739;28;21562;-67
2021/09/26 00:03:04;;;;;;;0.30;0.30;;;;;;;16.50;68.76;101368.53;682422;28;45277;-67
2021/09/26 00:03:26;;;;;;;0.20;0.20;;;;;;;16.48;68.78;101370.63;683057;28;46305;-67
2021/09/26 00:03:47;;;;;;;0.30;0.30;;;;;;;16.48;68.93;101364.34;683447;28;24338;-68
2021/09/26 00:04:08;;;;;;;0.20;0.20;;;;;;;16.43;68.97;101364.13;683008;28;23501;-67
2021/09/26 00:04:31;;;;;;;0.20;0.20;;;;;;;16.45;68.91;101370.19;684099;28;1712;-67
2021/09/26 00:04:52;;;;;;;0.20;0.20;;;;;;;16.44;68.78;101368.50;682276;28;46439;-67
2021/09/26 00:05:15;;;;;;;0.20;0.20;;;;;;;16.44;68.93;101373.94;683382;28;21771;-67
2021/09/26 00:05:36;;;;;;;0.20;0.20;;;;;;;16.42;69.14;101365.97;681631;28;69505;-67
2021/09/26 00:05:58;;;;;;;0.30;0.30;;;;;;;16.42;68.78;101368.69;683230;28;21554;-67
2021/09/26 00:06:19;;;;;;;0.20;0.20;;;;;;;16.40;68.78;101366.16;682250;28;46345;-67
2021/09/26 00:06:40;;;;;;;0.20;0.20;;;;;;;16.39;69.13;101366.38;682565;28;45252;-68
2021/09/26 00:07:02;;;;;;;0.30;0.30;;;;;;;16.37;69.18;101363.00;683594;28;23464;-67
2021/09/26 00:07:24;;;;;;;0.28;0.28;;;;;;;16.34;69.44;101366.97;683334;28;23450;-67
2021/09/26 00:07:45;;;;;;;0.20;0.20;;;;;;;16.35;69.52;101365.09;682264;28;46344;-67
2021/09/26 00:08:06;;;;;;;0.30;0.30;;;;;;;16.33;69.35;101368.03;683528;28;25014;-67
2021/09/26 00:08:27;;;;;;;0.25;0.25;;;;;;;16.31;69.45;101367.38;683195;28;22163;-67
2021/09/26 00:08:49;;;;;;;0.20;0.20;;;;;;;16.29;69.71;101372.19;683609;28;24411;-67
2021/09/26 00:09:10;;;;;;;0.20;0.20;;;;;;;16.30;69.51;101360.25;682569;28;45362;-67
2021/09/26 00:09:31;;;;;;;0.20;0.20;;;;;;;16.29;69.43;101358.56;682926;28;21369;-67
2021/09/26 00:09:52;;;;;;;0.20;0.20;;;;;;;16.29;69.57;101365.91;683408;28;21542;-67
2021/09/26 00:10:14;;;;;;;0.28;0.28;;;;;;;16.30;69.41;101362.13;683269;28;22417;-69
2021/09/26 00:10:36;;;;;;;0.30;0.30;;;;;;;16.31;69.43;101358.38;681966;28;45233;-67
2021/09/26 00:10:57;;;;;;;0.20;0.20;;;;;;;16.31;69.35;101364.66;682343;28;46320;-67
2021/09/26 00:11:19;;;;;;;0.20;0.20;;;;;;;16.31;69.43;101358.38;683071;28;21421;-67
2021/09/26 00:11:41;;;;;;;0.30;0.30;;;;;;;16.32;69.35;101362.78;683262;28;22414;-67
2021/09/26 00:12:02;;;;;;;0.20;0.20;;;;;;;16.31;69.29;101364.66;681827;28;67438;-67
2021/09/26 00:12:23;;;;;;;0.30;0.30;;;;;;;16.32;69.18;101362.78;682423;28;43783;-67
2021/09/26 00:12:45;;;;;;;0.30;0.30;;;;;;;16.32;69.12;101362.78;683631;28;21142;-68
2021/09/26 00:13:06;;;;;;;0.20;0.20;;;;;;;16.31;69.37;101361.09;683383;28;22204;-67
2021/09/26 00:13:28;;;;;;;0.20;0.20;;;;;;;16.31;69.32;101359.19;682686;28;46198;-67
2021/09/26 00:13:50;;;;;;;0.30;0.30;;;;;;;16.30;69.33;101365.72;682285;28;45141;-67
2021/09/26 00:14:11;;;;;;;0.20;0.20;;;;;;;16.30;69.28;101362.97;683288;28;23432;-68
2021/09/26 00:14:33;;;;;;;0.28;0.28;;;;;;;16.31;69.24;101364.66;683242;28;22520;-67
2021/09/26 00:14:55;;;;;;;0.30;0.30;;;;;;;16.29;69.46;101364.00;682622;28;46299;-67
2021/09/26 00:15:19;;;;;;;0.20;0.20;;;;;;;16.29;69.42;101364.00;682138;28;45244;-67
2021/09/26 00:15:40;;;;;;;0.20;0.20;;;;;;;16.28;69.38;101362.31;680835;28;92052;-68
2021/09/26 00:16:02;;;;;;;0.30;0.30;;;;;;;16.28;69.54;101367.78;682075;28;43615;-68
2021/09/26 00:16:23;;;;;;;0.20;0.20;;;;;;;16.28;69.66;101364.22;682145;28;46182;-69
2021/09/26 00:16:44;;;;;;;0.20;0.20;;;;;;;16.27;69.77;101368.84;683252;28;23553;-67
2021/09/26 00:17:05;;;;;;;0.30;0.30;;;;;;;16.27;69.58;101366.09;682784;28;22425;-68
2021/09/26 00:17:27;;;;;;;0.20;0.20;;;;;;;16.27;69.66;101371.56;683769;28;22389;-67
2021/09/26 00:17:49;;;;;;;0.20;0.20;;;;;;;16.28;69.68;101365.03;682047;28;46308;-66
2021/09/26 00:18:10;;;;;;;0.30;0.30;;;;;;;16.27;69.86;101366.09;682753;28;44394;-67
2021/09/26 00:18:31;;;;;;;0.20;0.20;;;;;;;16.30;69.50;101370.28;683436;28;22488;-67
2021/09/26 00:18:53;;;;;;;0.22;0.22;;;;;;;16.32;69.65;101365.50;683443;28;23226;-67
2021/09/26 00:19:14;;;;;;;0.30;0.30;;;;;;;16.31;69.52;101369.25;682545;28;45364;-67
2021/09/26 00:19:35;;;;;;;0.20;0.20;;;;;;;16.32;69.35;101368.22;683155;28;23307;-67
2021/09/26 00:19:57;;;;;;;0.20;0.20;;;;;;;16.31;69.40;101369.25;683190;28;23366;-66
2021/09/26 00:20:21;;;;;;;0.30;0.30;;;;;;;16.33;69.21;101367.16;682845;28;44449;-66
2021/09/26 00:20:42;;;;;;;0.20;0.20;;;;;;;16.34;69.21;101369.69;680787;28;92312;-67
2021/09/26 00:21:05;;;;;;;0.20;0.20;;;;;;;16.33;69.21;101361.72;683387;28;22425;-67
2021/09/26 00:21:26;;;;;;;0.30;0.30;;;;;;;16.35;69.00;101371.41;682794;28;46455;-67
2021/09/26 00:21:47;;;;;;;0.20;0.20;;;;;;;16.35;69.22;101367.84;683447;28;23461;-67
2021/09/26 00:22:08;;;;;;;0.30;0.30;;;;;;;16.37;68.88;101368.47;683272;28;22459;-67
2021/09/26 00:22:30;;;;;;;0.30;0.30;;;;;;;16.36;69.07;101369.50;682588;28;47269;-68
2021/09/26 00:22:51;;;;;;;0.20;0.20;;;;;;;16.36;68.99;101370.34;682308;28;44407;-68
2021/09/26 00:23:12;;;;;;;0.20;0.20;;;;;;;16.36;68.98;101372.22;683296;28;21300;-67
2021/09/26 00:23:34;;;;;;;0.30;0.30;;;;;;;16.37;69.00;101365.75;683567;28;22433;-67
2021/09/26 00:23:56;;;;;;;0.20;0.20;;;;;;;16.35;68.98;101367.84;682817;28;46338;-68
2021/09/26 00:24:18;;;;;;;0.20;0.20;;;;;;;16.35;69.05;101374.13;682465;28;46268;-68
2021/09/26 00:24:39;;;;;;;0.30;0.30;;;;;;;16.35;69.08;101374.13;680710;29;42690;-67
2021/09/26 00:25:00;;;;;;;0.20;0.20;;;;;;;16.34;69.01;101369.69;681181;28;21551;-67
2021/09/26 00:25:22;;;;;;;0.20;0.20;;;;;;;16.35;69.17;101371.41;681514;28;21550;-67
2021/09/26 00:25:44;;;;;;;0.30;0.30;;;;;;;16.35;69.11;101370.56;681222;28;23441;-67
2021/09/26 00:26:05;;;;;;;0.20;0.20;;;;;;;16.34;69.14;101368.88;680633;28;47172;-68
2021/09/26 00:26:26;;;;;;;0.20;0.20;;;;;;;16.35;69.05;101371.41;681260;28;44416;-67
2021/09/26 00:26:47;;;;;;;0.30;0.30;;;;;;;16.36;69.11;101369.50;679754;28;46523;-68
2021/09/26 00:27:12;;;;;;;0.30;0.30;;;;;;;16.36;69.13;101370.34;680098;29;23509;-67
2021/09/26 00:27:33;;;;;;;0.20;0.20;;;;;;;16.36;69.04;101372.22;677531;29;92892;-67
2021/09/26 00:27:55;;;;;;;0.30;0.30;;;;;;;16.36;69.09;101366.78;680056;28;23343;-67
2021/09/26 00:28:16;;;;;;;0.28;0.28;;;;;;;16.37;69.09;101373.91;679638;28;47226;-67
2021/09/26 00:28:38;;;;;;;0.20;0.20;;;;;;;16.39;68.99;101374.56;680528;29;22382;-67
2021/09/26 00:28:59;;;;;;;0.30;0.30;;;;;;;16.39;69.01;101374.56;680589;28;45270;-67
2021/09/26 00:29:20;;;;;;;0.25;0.25;;;;;;;16.39;69.02;101372.69;683225;28;22382;-67
2021/09/26 00:29:42;;;;;;;0.20;0.20;;;;;;;16.40;69.00;101374.34;684283;28;1544;-68
2021/09/26 00:30:04;;;;;;;0.22;0.22;;;;;;;16.42;68.79;101373.31;681966;28;46298;-67
2021/09/26 00:30:25;;;;;;;0.30;0.30;;;;;;;16.42;68.69;101379.59;681870;28;46420;-68
2021/09/26 00:30:47;;;;;;;0.20;0.20;;;;;;;16.40;68.53;101368.06;680683;28;21520;-67
2021/09/26 00:31:08;;;;;;;0.20;0.20;;;;;;;16.39;68.54;101371.81;682388;28;46377;-67
2021/09/26 00:31:30;;;;;;;0.30;0.30;;;;;;;16.37;68.37;101372.03;683689;28;22406;-67
2021/09/26 00:31:51;;;;;;;0.20;0.20;;;;;;;16.36;68.37;101375.81;682629;28;44233;-66
2021/09/26 00:32:12;;;;;;;0.28;0.28;;;;;;;16.34;68.29;101363.41;683296;28;22393;-67
2021/09/26 00:32:34;;;;;;;0.30;0.30;;;;;;;16.35;68.28;101365.94;683410;28;22426;-67
2021/09/26 00:32:56;;;;;;;0.20;0.20;;;;;;;16.36;68.63;101362.19;683190;28;21548;-66
2021/09/26 00:33:17;;;;;;;0.20;0.20;;;;;;;16.40;68.62;101365.34;682480;28;44399;-67
2021/09/26 00:33:38;;;;;;;0.30;0.30;;;;;;;16.42;68.69;101367.88;682634;28;46362;-67
2021/09/26 00:33:59;;;;;;;0.20;0.20;;;;;;;16.42;68.78;101367.88;683525;28;22445;-69
2021/09/26 00:34:21;;;;;;;0.20;0.20;;;;;;;16.43;68.78;101367.66;683328;28;22378;-67
2021/09/26 00:34:42;;;;;;;0.30;0.30;;;;;;;16.42;68.75;101365.13;682110;28;46386;-67
2021/09/26 00:35:04;;;;;;;0.20;0.20;;;;;;;16.42;68.61;101367.88;682633;28;22434;-67
2021/09/26 00:35:27;;;;;;;0.20;0.20;;;;;;;16.36;68.60;101364.91;683224;28;22412;-68
2021/09/26 00:35:48;;;;;;;0.30;0.30;;;;;;;16.37;68.59;101366.56;680165;28;92232;-67
2021/09/26 00:36:09;;;;;;;0.20;0.20;;;;;;;16.37;68.53;101376.66;683116;28;23775;-67
2021/09/26 00:36:30;;;;;;;0.20;0.20;;;;;;;16.36;68.39;101372.22;683540;28;20747;-68
2021/09/26 00:36:52;;;;;;;0.30;0.30;;;;;;;16.34;68.66;101372.44;683516;28;23374;-68
2021/09/26 00:37:14;;;;;;;0.22;0.22;;;;;;;16.33;68.61;101372.63;680871;29;46333;-67
2021/09/26 00:37:35;;;;;;;0.20;0.20;;;;;;;16.33;68.67;101367.16;683359;28;22425;-67
2021/09/26 00:37:56;;;;;;;0.30;0.30;;;;;;;16.33;68.83;101372.63;683912;28;18457;-67
2021/09/26 00:38:19;;;;;;;0.30;0.30;;;;;;;16.32;68.84;101369.06;683361;28;22430;-67
2021/09/26 00:38:40;;;;;;;0.20;0.20;;;;;;;16.32;68.99;101366.34;681757;28;68399;-68
2021/09/26 00:39:01;;;;;;;0.30;0.30;;;;;;;16.32;68.49;101373.69;683368;28;23482;-67
2021/09/26 00:39:23;;;;;;;0.30;0.30;;;;;;;16.31;68.74;101370.09;683203;28;21583;-67
2021/09/26 00:39:44;;;;;;;0.20;0.20;;;;;;;16.31;68.64;101367.38;682521;28;46875;-66
2021/09/26 00:40:07;;;;;;;0.28;0.28;;;;;;;16.31;68.76;101374.72;683033;28;22378;-67
2021/09/26 00:40:28;;;;;;;0.30;0.30;;;;;;;16.31;68.64;101364.66;681561;28;69870;-67
2021/09/26 00:40:52;;;;;;;0.20;0.20;;;;;;;16.32;68.69;101368.22;682013;28;44074;-67
2021/09/26 00:41:13;;;;;;;0.25;0.25;;;;;;;16.32;68.55;101365.50;680657;28;69517;-67
2021/09/26 00:41:34;;;;;;;0.30;0.30;;;;;;;16.32;68.50;101366.34;682792;28;22269;-67
2021/09/26 00:41:55;;;;;;;0.20;0.20;;;;;;;16.33;68.41;101362.59;683613;28;23496;-67
2021/09/26 00:42:17;;;;;;;0.20;0.20;;;;;;;16.32;68.44;101360.06;682708;28;44256;-67
2021/09/26 00:42:39;;;;;;;0.30;0.30;;;;;;;16.30;68.57;101368.44;682650;28;46637;-67
2021/09/26 00:43:00;;;;;;;0.20;0.20;;;;;;;16.30;68.62;101371.16;682579;28;43936;-67
2021/09/26 00:43:21;;;;;;;0.20;0.20;;;;;;;16.30;68.39;101368.44;683278;28;22444;-67
2021/09/26 00:43:43;;;;;;;0.30;0.30;;;;;;;16.29;68.43;101368.63;683486;28;22429;-67
2021/09/26 00:44:04;;;;;;;0.20;0.20;;;;;;;16.29;68.49;101363.19;682766;28;44424;-67
2021/09/26 00:44:25;;;;;;;0.20;0.20;;;;;;;16.29;68.46;101368.63;683532;28;23389;-67
2021/09/26 00:44:46;;;;;;;0.30;0.30;;;;;;;16.26;68.54;101369.03;683640;28;23694;-67
2021/09/26 00:45:09;;;;;;;0.20;0.20;;;;;;;16.25;68.32;101368.16;682670;28;22299;-68
2021/09/26 00:45:30;;;;;;;0.20;0.20;;;;;;;16.26;68.41;101367.13;681684;28;70254;-68
2021/09/26 00:45:51;;;;;;;0.30;0.30;;;;;;;16.26;68.41;101377.22;682901;28;21503;-67
2021/09/26 00:46:13;;;;;;;0.20;0.20;;;;;;;16.24;68.67;101368.38;683115;28;22366;-67
2021/09/26 00:46:34;;;;;;;0.20;0.20;;;;;;;16.24;68.54;101371.94;682431;28;45264;-67
2021/09/26 00:46:56;;;;;;;0.20;0.20;;;;;;;16.26;68.66;101374.47;682913;28;23470;-67
2021/09/26 00:47:17;;;;;;;0.20;0.20;;;;;;;16.23;68.57;101370.25;683056;28;23493;-67
2021/09/26 00:47:39;;;;;;;0.20;0.20;;;;;;;16.24;68.61;101368.38;682969;28;23724;-67
2021/09/26 00:48:00;;;;;;;0.30;0.30;;;;;;;16.19;68.57;101369.81;682031;28;46858;-67
2021/09/26 00:48:21;;;;;;;0.30;0.30;;;;;;;16.21;68.47;101369.63;683122;28;22425;-67
2021/09/26 00:48:42;;;;;;;0.20;0.20;;;;;;;16.20;68.56;101374.22;683356;28;23503;-67
2021/09/26 00:49:04;;;;;;;0.20;0.20;;;;;;;16.20;68.59;101376.09;682748;28;21523;-67
2021/09/26 00:49:25;;;;;;;0.30;0.30;;;;;;;16.17;68.44;101374.59;682789;28;44429;-68
2021/09/26 00:49:47;;;;;;;0.20;0.20;;;;;;;16.17;68.54;101369.16;681985;28;31103;-67
2021/09/26 00:50:09;;;;;;;0.20;0.20;;;;;;;16.15;68.38;101371.25;681774;28;44457;-67
2021/09/26 00:50:33;;;;;;;0.30;0.30;;;;;;;16.12;68.62;101368.91;682684;28;43766;-67
2021/09/26 00:50:56;;;;;;;0.20;0.20;;;;;;;16.14;68.69;101375.00;680262;28;92170;-67
2021/09/26 00:51:17;;;;;;;0.20;0.20;;;;;;;16.14;68.80;101375.00;681522;28;67509;-67
2021/09/26 00:51:39;;;;;;;0.30;0.30;;;;;;;16.12;68.65;101362.63;682438;28;46307;-67
2021/09/26 00:52:01;;;;;;;0.20;0.20;;;;;;;16.10;68.63;101373.75;682784;28;22449;-67
2021/09/26 00:52:22;;;;;;;0.20;0.20;;;;;;;16.08;68.74;101370.38;682099;28;43710;-67
2021/09/26 00:52:45;;;;;;;0.30;0.30;;;;;;;16.08;68.75;101367.66;683079;28;23444;-67
2021/09/26 00:53:06;;;;;;;0.20;0.20;;;;;;;16.08;68.87;101367.66;681846;28;70096;-67
2021/09/26 00:53:28;;;;;;;0.20;0.20;;;;;;;16.09;68.76;101365.75;683205;28;21172;-67
2021/09/26 00:53:50;;;;;;;0.30;0.30;;;;;;;16.09;68.84;101372.03;681782;28;45256;-67
2021/09/26 00:54:11;;;;;;;0.20;0.20;;;;;;;16.08;68.90;101367.66;683083;28;23486;-68
2021/09/26 00:54:32;;;;;;;0.20;0.20;;;;;;;16.08;68.76;101370.38;682579;28;45256;-67
2021/09/26 00:54:53;;;;;;;0.30;0.30;;;;;;;16.10;68.88;101368.28;682998;28;23384;-67
2021/09/26 00:55:16;;;;;;;0.30;0.30;;;;;;;16.10;68.90;101371.00;683054;28;23537;-67
2021/09/26 00:55:37;;;;;;;0.20;0.20;;;;;;;16.11;68.79;101369.97;680498;29;67070;-67
2021/09/26 00:55:59;;;;;;;0.30;0.30;;;;;;;16.10;68.89;101371.00;682945;28;23477;-68
2021/09/26 00:56:22;;;;;;;0.30;0.30;;;;;;;16.13;68.96;101367.91;682302;28;46565;-68
2021/09/26 00:56:45;;;;;;;0.20;0.20;;;;;;;16.13;68.79;101370.63;682735;28;46347;-68
2021/09/26 00:57:06;;;;;;;0.22;0.22;;;;;;;16.11;68.73;101371.84;679714;29;92136;-67
2021/09/26 00:57:27;;;;;;;0.20;0.20;;;;;;;16.11;68.84;101374.56;681546;28;46394;-67
2021/09/26 00:57:49;;;;;;;0.20;0.20;;;;;;;16.11;68.79;101366.41;682611;28;23407;-68
2021/09/26 00:58:10;;;;;;;0.20;0.20;;;;;;;16.08;68.76;101373.09;682245;28;44394;-68
2021/09/26 00:58:31;;;;;;;0.28;0.28;;;;;;;16.07;68.72;101374.13;683462;28;22407;-67
2021/09/26 00:58:54;;;;;;;0.20;0.20;;;;;;;16.08;68.83;101369.50;683417;28;21535;-68
2021/09/26 00:59:16;;;;;;;0.20;0.20;;;;;;;16.09;68.94;101372.03;682078;28;46419;-68
2021/09/26 00:59:37;;;;;;;0.30;0.30;;;;;;;16.08;69.03;101367.66;682496;28;46380;-68
2021/09/26 00:59:58;;;;;;;0.20;0.20;;;;;;;16.11;69.00;101363.66;682080;28;46731;-68
2021/09/26 01:00:20;;;;;;;0.20;0.20;;;;;;;16.09;68.94;101371.22;682622;28;45432;-67
2021/09/26 01:00:42;;;;;;;0.30;0.30;;;;;;;16.10;69.02;101364.72;682173;28;45308;-67
2021/09/26 01:01:03;;;;;;;0.20;0.20;;;;;;;16.10;68.88;101368.28;682509;28;45094;-67
2021/09/26 01:01:24;;;;;;;0.20;0.20;;;;;;;16.10;69.01;101367.47;683232;28;20766;-68
2021/09/26 01:01:46;;;;;;;0.30;0.30;;;;;;;16.10;69.00;101357.38;683539;28;22355;-68
2021/09/26 01:02:08;;;;;;;0.20;0.20;;;;;;;16.11;68.93;101366.41;681936;28;69240;-68
2021/09/26 01:02:29;;;;;;;0.22;0.22;;;;;;;16.12;69.12;101370.81;682518;28;46397;-68
2021/09/26 01:02:50;;;;;;;0.30;0.30;;;;;;;16.14;69.09;101368.72;683487;28;22378;-68
2021/09/26 01:03:12;;;;;;;0.20;0.20;;;;;;;16.14;69.02;101366.00;683345;28;21546;-67
2021/09/26 01:03:33;;;;;;;0.20;0.20;;;;;;;16.15;69.16;101368.53;681762;28;45258;-68
2021/09/26 01:03:55;;;;;;;0.30;0.30;;;;;;;16.16;69.20;101367.50;683281;28;23493;-68
2021/09/26 01:04:17;;;;;;;0.30;0.30;;;;;;;16.17;69.13;101363.72;682288;28;46341;-68
2021/09/26 01:04:39;;;;;;;0.20;0.20;;;;;;;16.17;69.18;101369.16;679404;28;46353;-67
2021/09/26 01:05:01;;;;;;;0.30;0.30;;;;;;;16.15;69.02;101363.06;678766;29;45292;-67
2021/09/26 01:05:24;;;;;;;0.22;0.22;;;;;;;16.21;69.17;101364.19;679853;28;47407;-67
2021/09/26 01:05:50;;;;;;;0.20;0.20;;;;;;;16.23;69.24;101367.53;678942;28;67547;-68
2021/09/26 01:06:20;;;;;;;0.30;0.30;;;;;;;16.23;69.02;101363.97;676120;28;138837;-68
2021/09/26 01:06:47;;;;;;;0.20;0.20;;;;;;;16.23;69.13;101359.34;679167;28;138072;-68
2021/09/26 01:07:12;;;;;;;0.30;0.30;;;;;;;16.23;69.18;101362.09;679370;28;138116;-68
2021/09/26 01:07:35;;;;;;;0.25;0.25;;;;;;;16.25;69.10;101370.06;680404;28;115737;-68
2021/09/26 01:08:08;;;;;;;0.20;0.20;;;;;;;16.26;69.15;101366.31;681062;28;69486;-68
2021/09/26 01:08:37;;;;;;;0.30;0.30;;;;;;;16.27;69.05;101371.56;679056;28;137501;-67
2021/09/26 01:09:04;;;;;;;0.20;0.20;;;;;;;16.29;69.12;101374.09;679539;28;137926;-67
2021/09/26 01:09:29;;;;;;;0.30;0.30;;;;;;;16.27;69.05;101368.84;679593;28;138754;-68
2021/09/26 01:09:56;;;;;;;0.30;0.30;;;;;;;16.29;68.77;101371.34;679253;28;136246;-67
2021/09/26 01:10:22;;;;;;;0.20;0.20;;;;;;;16.29;69.02;101372.19;679446;28;137860;-67
2021/09/26 01:10:51;;;;;;;0.30;0.30;;;;;;;16.28;68.94;101370.50;678348;28;138223;-67
2021/09/26 01:11:16;;;;;;;0.20;0.20;;;;;;;16.29;69.03;101363.19;679553;28;137723;-68
2021/09/26 01:11:48;;;;;;;0.30;0.30;;;;;;;16.27;68.76;101366.09;680688;28;113171;-68
2021/09/26 01:12:13;;;;;;;0.20;0.20;;;;;;;16.28;68.85;101362.31;679227;28;137739;-68
2021/09/26 01:12:38;;;;;;;0.20;0.20;;;;;;;16.30;68.96;101371.16;679305;28;136455;-68
2021/09/26 01:13:05;;;;;;;0.30;0.30;;;;;;;16.31;68.83;101364.66;681014;28;92147;-67
2021/09/26 01:13:38;;;;;;;0.20;0.20;;;;;;;16.33;68.74;101368.03;679526;28;137968;-68
2021/09/26 01:14:06;;;;;;;0.30;0.30;;;;;;;16.33;68.70;101367.16;679803;28;138375;-67
2021/09/26 01:14:34;;;;;;;0.25;0.25;;;;;;;16.32;68.66;101363.63;679446;28;137895;-68
2021/09/26 01:15:03;;;;;;;0.30;0.30;;;;;;;16.32;68.88;101369.06;678676;28;136304;-67
2021/09/26 01:15:44;;;;;;;0.30;0.30;;;;;;;16.32;68.60;101365.50;678772;28;159228;-68
2021/09/26 01:16:22;;;;;;;0.20;0.20;;;;;;;16.32;68.63;101369.06;678139;28;156370;-67
2021/09/26 01:16:57;;;;;;;0.20;0.20;;;;;;;16.31;68.70;101364.66;679428;28;137713;-67
2021/09/26 01:17:23;;;;;;;0.30;0.30;;;;;;;16.33;68.78;101368.03;679324;28;137703;-68
2021/09/26 01:17:47;;;;;;;0.20;0.20;;;;;;;16.33;68.88;101372.63;679623;28;138573;-67
2021/09/26 01:18:12;;;;;;;0.20;0.20;;;;;;;16.32;68.91;101368.22;680795;28;90270;-67
2021/09/26 01:18:47;;;;;;;0.30;0.30;;;;;;;16.31;68.82;101361.91;679526;28;138178;-67
2021/09/26 01:19:25;;;;;;;0.20;0.20;;;;;;;16.33;68.76;101364.44;676996;28;160632;-67
2021/09/26 01:20:12;;;;;;;0.30;0.30;;;;;;;16.33;68.99;101361.72;679512;28;135881;-67
2021/09/26 01:20:41;;;;;;;0.30;0.30;;;;;;;16.34;69.04;101368.88;678937;28;156560;-67
2021/09/26 01:21:08;;;;;;;0.27;0.27;;;;;;;16.35;68.72;101367.84;678442;28;158363;-68
2021/09/26 01:21:36;;;;;;;0.20;0.20;;;;;;;16.34;68.87;101368.88;679633;28;138283;-68
2021/09/26 01:22:02;;;;;;;0.30;0.30;;;;;;;16.35;68.83;101370.56;679345;28;136291;-68
2021/09/26 01:22:32;;;;;;;0.20;0.20;;;;;;;16.31;68.61;101366.53;678866;28;138962;-68
2021/09/26 01:23:07;;;;;;;0.30;0.30;;;;;;;16.28;68.62;101372.38;679451;28;137739;-67
2021/09/26 01:24:12;;;;;;;0.20;0.20;;;;;;;16.24;68.83;101362.91;679819;28;138338;-67
2021/09/26 01:25:03;;;;;;;0.20;0.20;;;;;;;16.17;69.03;101366.44;679062;28;137451;-68
2021/09/26 01:25:40;;;;;;;0.20;0.20;;;;;;;16.14;69.09;101368.72;679972;28;117302;-67
2021/09/26 01:26:19;;;;;;;0.20;0.20;;;;;;;16.10;69.06;101367.47;678204;28;139212;-68
2021/09/26 01:26:46;;;;;;;0.20;0.20;;;;;;;16.04;69.12;101361.75;679391;28;137729;-68
2021/09/26 01:27:27;;;;;;;0.20;0.20;;;;;;;16.06;69.37;101366.16;678724;28;159394;-67
2021/09/26 01:28:19;;;;;;;0.20;0.20;;;;;;;16.01;69.46;101369.47;678734;28;137345;-68
2021/09/26 01:28:51;;;;;;;0.30;0.30;;;;;;;15.99;69.79;101366.94;678057;28;160565;-67
2021/09/26 01:29:34;;;;;;;0.20;0.20;;;;;;;16.01;69.71;101369.47;678080;28;137010;-67
2021/09/26 01:30:14;;;;;;;0.20;0.20;;;;;;;16.01;69.78;101372.19;679184;28;136544;-68
2021/09/26 01:30:36;;;;;;;0.30;0.30;;;;;;;16.01;69.78;101364.84;679083;28;139448;-67
2021/09/26 01:31:00;;;;;;;0.28;0.28;;;;;;;16.02;69.84;101372.00;681187;28;69339;-67
2021/09/26 01:31:26;;;;;;;0.20;0.20;;;;;;;16.05;69.92;101370.78;680145;28;93303;-67
2021/09/26 01:31:56;;;;;;;0.30;0.30;;;;;;;16.08;69.92;101366.78;677445;28;124337;-68
2021/09/26 01:32:18;;;;;;;0.25;0.25;;;;;;;16.10;69.96;101362.00;676440;28;137973;-67
2021/09/26 01:32:41;;;;;;;0.22;0.22;;;;;;;16.09;69.77;101360.31;678233;28;68548;-67
2021/09/26 01:33:06;;;;;;;0.30;0.30;;;;;;;16.11;69.80;101367.25;677297;29;69379;-67
2021/09/26 01:33:30;;;;;;;0.20;0.20;;;;;;;16.11;69.82;101363.66;676630;29;93139;-67
2021/09/26 01:33:56;;;;;;;0.20;0.20;;;;;;;16.11;69.77;101364.53;678573;28;93278;-67
2021/09/26 01:34:21;;;;;;;0.30;0.30;;;;;;;16.10;69.66;101359.28;676376;28;138967;-67
2021/09/26 01:34:45;;;;;;;0.20;0.20;;;;;;;16.11;69.57;101361.81;677475;28;115143;-67
2021/09/26 01:35:09;;;;;;;0.22;0.22;;;;;;;16.12;69.69;101365.38;679640;28;113639;-67
2021/09/26 01:35:31;;;;;;;0.20;0.20;;;;;;;16.13;69.82;101367.91;681321;28;69453;-67
2021/09/26 01:35:57;;;;;;;0.20;0.20;;;;;;;16.15;69.87;101364.97;680989;28;69490;-67
2021/09/26 01:36:22;;;;;;;0.30;0.30;;;;;;;16.16;69.81;101369.34;680215;28;114983;-67
2021/09/26 01:36:45;;;;;;;0.20;0.20;;;;;;;16.16;69.79;101366.63;680308;28;114953;-67
2021/09/26 01:37:11;;;;;;;0.20;0.20;;;;;;;16.16;69.74;101366.63;681044;28;92347;-67
2021/09/26 01:37:38;;;;;;;0.30;0.30;;;;;;;16.17;69.67;101365.59;678960;28;138171;-67
2021/09/26 01:38:05;;;;;;;0.20;0.20;;;;;;;16.18;69.71;101362.69;679301;28;137253;-66
2021/09/26 01:38:32;;;;;;;0.22;0.22;;;;;;;16.19;69.63;101366.25;679477;28;138141;-68
2021/09/26 01:38:59;;;;;;;0.25;0.25;;;;;;;16.20;69.74;101371.50;679428;28;138413;-67
2021/09/26 01:39:23;;;;;;;0.20;0.20;;;;;;;16.21;69.71;101367.72;679294;28;136411;-67
2021/09/26 01:39:47;;;;;;;0.30;0.30;;;;;;;16.21;69.72;101359.56;680933;28;91646;-67
2021/09/26 01:40:14;;;;;;;0.20;0.20;;;;;;;16.20;69.74;101363.31;681182;28;68518;-68
2021/09/26 01:40:41;;;;;;;0.20;0.20;;;;;;;16.24;69.69;101362.91;679271;28;137821;-67
2021/09/26 01:41:09;;;;;;;0.30;0.30;;;;;;;16.23;69.73;101367.53;678299;28;157779;-68
2021/09/26 01:41:33;;;;;;;0.20;0.20;;;;;;;16.25;69.69;101362.72;679814;28;138072;-67
2021/09/26 01:41:58;;;;;;;0.30;0.30;;;;;;;16.27;69.79;101366.09;680595;28;92321;-68
2021/09/26 01:42:23;;;;;;;0.20;0.20;;;;;;;16.30;69.67;101367.56;681073;28;90758;-67
2021/09/26 01:42:48;;;;;;;0.20;0.20;;;;;;;16.30;69.53;101365.72;680269;28;116973;-67
2021/09/26 01:43:12;;;;;;;0.30;0.30;;;;;;;16.32;69.49;101370.97;680054;28;113478;-67
2021/09/26 01:43:37;;;;;;;0.20;0.20;;;;;;;16.31;69.65;101370.09;680359;28;115064;-66
2021/09/26 01:43:59;;;;;;;0.20;0.20;;;;;;;16.33;69.55;101376.22;680170;28;114609;-67
2021/09/26 01:44:24;;;;;;;0.30;0.30;;;;;;;16.34;69.60;101369.69;681105;28;7111;-68
2021/09/26 01:44:52;;;;;;;0.20;0.20;;;;;;;16.35;69.50;101367.84;676821;28;115918;-68
2021/09/26 01:45:19;;;;;;;0.20;0.20;;;;;;;16.36;69.55;101370.34;675604;29;158450;-67
2021/09/26 01:45:42;;;;;;;0.22;0.22;;;;;;;16.36;69.39;101364.03;676751;28;138000;-68
2021/09/26 01:46:06;;;;;;;0.20;0.20;;;;;;;16.38;69.36;101370.16;675848;28;111988;-67
2021/09/26 01:46:31;;;;;;;0.30;0.30;;;;;;;16.38;69.58;101371.00;680997;28;93173;-67
2021/09/26 01:46:54;;;;;;;0.20;0.20;;;;;;;16.40;69.38;101373.53;681129;28;90384;-66
2021/09/26 01:47:18;;;;;;;0.20;0.20;;;;;;;16.39;69.51;101367.25;681417;28;69577;-68
2021/09/26 01:47:43;;;;;;;0.30;0.30;;;;;;;16.39;69.38;101369.09;680574;28;92308;-67
2021/09/26 01:48:09;;;;;;;0.20;0.20;;;;;;;16.42;69.35;101370.59;679922;28;115315;-68
2021/09/26 01:48:37;;;;;;;0.28;0.28;;;;;;;16.42;69.50;101370.59;679271;28;137973;-67
2021/09/26 01:49:01;;;;;;;0.28;0.28;;;;;;;16.41;69.47;101367.03;679572;28;138190;-67
2021/09/26 01:49:27;;;;;;;0.20;0.20;;;;;;;16.42;69.47;101370.59;681419;28;92451;-67
2021/09/26 01:49:51;;;;;;;0.30;0.30;;;;;;;16.41;69.43;101375.22;679510;28;138176;-67
2021/09/26 01:50:12;;;;;;;0.20;0.20;;;;;;;16.42;69.44;101367.88;679646;28;111984;-68
2021/09/26 01:50:35;;;;;;;0.20;0.20;;;;;;;16.42;69.42;101365.97;683528;28;22381;-67
2021/09/26 01:50:59;;;;;;;0.30;0.30;;;;;;;16.43;69.48;101364.94;681622;28;46356;-67
2021/09/26 01:51:22;;;;;;;0.20;0.20;;;;;;;16.44;69.34;101363.91;680297;28;113571;-68
2021/09/26 01:51:44;;;;;;;0.20;0.20;;;;;;;16.43;69.48;101359.50;681942;28;69245;-68
2021/09/26 01:52:09;;;;;;;0.30;0.30;;;;;;;16.45;69.47;101362.84;682310;28;44394;-67
2021/09/26 01:52:33;;;;;;;0.20;0.20;;;;;;;16.44;69.33;101354.88;679677;28;113957;-68